sensor_id;sensor_type;location;lat;lon;timestamp;pressure;altitude;pressure_sealevel;temperature;humidity
58243;BME280;50118;53.232;8.252;2022-10-31T00:37:02;101866.44;;;10.78;100.00
58243;BME280;50118;53.232;8.252;2022-10-31T00:47:06;101876.84;;;10.70;100.00
58243;BME280;50118;53.232;8.252;2022-10-31T01:04:30;101899.06;;;10.46;100.00
58243;BME280;50118;53.232;8.252;2022-10-31T01:17:34;101914.41;;;10.19;100.00
58243;BME280;50118;53.232;8.252;2022-10-31T01:20:37;101911.88;;;10.17;100.00
58243;BME280;50118;53.232;8.252;2022-10-31T01:33:55;101903.81;;;10.06;100.00
58243;BME280;50118;53.232;8.252;2022-10-31T01:40:08;101908.06;;;9.84;100.00
58243;BME280;50118;53.232;8.252;2022-10-31T01:52:48;101900.63;;;9.77;100.00
58243;BME280;50118;53.232;8.252;2022-10-31T01:55:32;101905.63;;;9.81;100.00
58243;BME280;50118;53.232;8.252;2022-10-31T01:58:24;101905.75;;;9.80;100.00
58243;BME280;50118;53.232;8.252;2022-10-31T02:01:08;101912.78;;;9.81;100.00
58243;BME280;50118;53.232;8.252;2022-10-31T02:03:55;101909.34;;;9.79;100.00
58243;BME280;50118;53.232;8.252;2022-10-31T02:09:31;101910.84;;;9.83;100.00
58243;BME280;50118;53.232;8.252;2022-10-31T02:12:28;101917.63;;;9.87;100.00
58243;BME280;50118;53.232;8.252;2022-10-31T02:15:31;101906.78;;;9.90;100.00
58243;BME280;50118;53.232;8.252;2022-10-31T02:19:10;101908.75;;;9.99;100.00
58243;BME280;50118;53.232;8.252;2022-10-31T02:21:56;101915.22;;;10.08;100.00
58243;BME280;50118;53.232;8.252;2022-10-31T02:34:42;101926.31;;;10.02;100.00
58243;BME280;50118;53.232;8.252;2022-10-31T02:47:28;101918.66;;;9.97;100.00
58243;BME280;50118;53.232;8.252;2022-10-31T02:50:31;101922.69;;;10.03;100.00
58243;BME280;50118;53.232;8.252;2022-10-31T02:53:17;101926.94;;;10.05;100.00
58243;BME280;50118;53.232;8.252;2022-10-31T02:59:49;101931.41;;;10.05;100.00
58243;BME280;50118;53.232;8.252;2022-10-31T03:04:32;101929.72;;;10.04;100.00
58243;BME280;50118;53.232;8.252;2022-10-31T03:22:39;101933.38;;;9.90;100.00
58243;BME280;50118;53.232;8.252;2022-10-31T03:25:19;101936.56;;;9.95;100.00
58243;BME280;50118;53.232;8.252;2022-10-31T03:28:39;101932.06;;;9.96;100.00
58243;BME280;50118;53.232;8.252;2022-10-31T03:31:36;101935.31;;;9.88;100.00
58243;BME280;50118;53.232;8.252;2022-10-31T03:34:12;101939.13;;;9.84;100.00
58243;BME280;50118;53.232;8.252;2022-10-31T03:36:43;101945.97;;;9.75;100.00
58243;BME280;50118;53.232;8.252;2022-10-31T03:39:13;101947.50;;;9.66;100.00
58243;BME280;50118;53.232;8.252;2022-10-31T03:41:43;101953.03;;;9.63;100.00
58243;BME280;50118;53.232;8.252;2022-10-31T03:44:17;101944.53;;;9.58;100.00
58243;BME280;50118;53.232;8.252;2022-10-31T03:46:44;101939.88;;;9.49;100.00
58243;BME280;50118;53.232;8.252;2022-10-31T03:49:11;101948.47;;;9.40;100.00
58243;BME280;50118;53.232;8.252;2022-10-31T03:55:04;101943.94;;;9.42;100.00
58243;BME280;50118;53.232;8.252;2022-10-31T03:59:44;101946.28;;;9.33;100.00
58243;BME280;50118;53.232;8.252;2022-10-31T04:02:14;101949.88;;;9.32;100.00
58243;BME280;50118;53.232;8.252;2022-10-31T04:04:42;101945.22;;;9.23;100.00
58243;BME280;50118;53.232;8.252;2022-10-31T04:07:10;101943.06;;;9.15;100.00
58243;BME280;50118;53.232;8.252;2022-10-31T04:09:38;101952.13;;;9.13;100.00
58243;BME280;50118;53.232;8.252;2022-10-31T04:12:06;101945.75;;;9.03;100.00
58243;BME280;50118;53.232;8.252;2022-10-31T04:14:36;101950.28;;;9.01;100.00
58243;BME280;50118;53.232;8.252;2022-10-31T04:17:05;101945.63;;;8.91;100.00
58243;BME280;50118;53.232;8.252;2022-10-31T04:19:33;101950.94;;;8.91;100.00
58243;BME280;50118;53.232;8.252;2022-10-31T04:21:59;101948.38;;;8.90;100.00
58243;BME280;50118;53.232;8.252;2022-10-31T04:24:25;101951.16;;;8.88;100.00
58243;BME280;50118;53.232;8.252;2022-10-31T04:26:50;101950.09;;;8.91;100.00
58243;BME280;50118;53.232;8.252;2022-10-31T04:29:15;101959.84;;;8.90;100.00
58243;BME280;50118;53.232;8.252;2022-10-31T04:31:41;101960.38;;;8.95;100.00
58243;BME280;50118;53.232;8.252;2022-10-31T04:34:06;101957.53;;;8.98;100.00
58243;BME280;50118;53.232;8.252;2022-10-31T04:36:32;101965.41;;;9.00;100.00
58243;BME280;50118;53.232;8.252;2022-10-31T04:38:58;101962.22;;;9.08;100.00
58243;BME280;50118;53.232;8.252;2022-10-31T04:41:23;101961.78;;;9.14;100.00
58243;BME280;50118;53.232;8.252;2022-10-31T04:43:48;101970.94;;;9.23;100.00
58243;BME280;50118;53.232;8.252;2022-10-31T04:46:14;101974.78;;;9.31;100.00
58243;BME280;50118;53.232;8.252;2022-10-31T04:48:39;101965.41;;;9.39;100.00
58243;BME280;50118;53.232;8.252;2022-10-31T04:51:05;101963.06;;;9.47;100.00
58243;BME280;50118;53.232;8.252;2022-10-31T04:53:30;101963.72;;;9.50;100.00
58243;BME280;50118;53.232;8.252;2022-10-31T04:55:58;101968.81;;;9.53;100.00
58243;BME280;50118;53.232;8.252;2022-10-31T04:58:24;101971.84;;;9.60;100.00
58243;BME280;50118;53.232;8.252;2022-10-31T05:00:54;101961.78;;;9.65;100.00
58243;BME280;50118;53.232;8.252;2022-10-31T05:03:29;101963.13;;;9.71;100.00
58243;BME280;50118;53.232;8.252;2022-10-31T05:06:00;101968.13;;;9.76;100.00
58243;BME280;50118;53.232;8.252;2022-10-31T05:08:46;101966.22;;;9.78;100.00
58243;BME280;50118;53.232;8.252;2022-10-31T05:11:35;101959.19;;;9.77;100.00
58243;BME280;50118;53.232;8.252;2022-10-31T05:14:31;101952.16;;;9.76;100.00
58243;BME280;50118;53.232;8.252;2022-10-31T05:17:52;101961.00;;;9.76;100.00
58243;BME280;50118;53.232;8.252;2022-10-31T05:20:24;101963.75;;;9.75;100.00
58243;BME280;50118;53.232;8.252;2022-10-31T05:22:57;101960.88;;;9.78;100.00
58243;BME280;50118;53.232;8.252;2022-10-31T05:25:28;101961.41;;;9.83;100.00
58243;BME280;50118;53.232;8.252;2022-10-31T05:28:14;101969.59;;;9.80;100.00
58243;BME280;50118;53.232;8.252;2022-10-31T05:30:48;101952.81;;;9.79;100.00
58243;BME280;50118;53.232;8.252;2022-10-31T05:33:14;101954.16;;;9.85;100.00
58243;BME280;50118;53.232;8.252;2022-10-31T05:35:40;101959.19;;;9.77;100.00
58243;BME280;50118;53.232;8.252;2022-10-31T05:38:05;101958.97;;;9.80;100.00
58243;BME280;50118;53.232;8.252;2022-10-31T05:40:43;101961.22;;;9.73;100.00
58243;BME280;50118;53.232;8.252;2022-10-31T05:43:11;101959.75;;;9.69;100.00
58243;BME280;50118;53.232;8.252;2022-10-31T05:45:37;101961.53;;;9.68;100.00
58243;BME280;50118;53.232;8.252;2022-10-31T05:48:26;101974.00;;;9.68;100.00
58243;BME280;50118;53.232;8.252;2022-10-31T05:50:57;101969.50;;;9.68;100.00
58243;BME280;50118;53.232;8.252;2022-10-31T05:53:23;101970.69;;;9.64;100.00
58243;BME280;50118;53.232;8.252;2022-10-31T05:55:48;101973.66;;;9.72;100.00
58243;BME280;50118;53.232;8.252;2022-10-31T05:58:14;101976.34;;;9.72;100.00
58243;BME280;50118;53.232;8.252;2022-10-31T06:00:39;101968.56;;;9.69;100.00
58243;BME280;50118;53.232;8.252;2022-10-31T06:03:08;101978.56;;;9.66;100.00
58243;BME280;50118;53.232;8.252;2022-10-31T06:05:34;101971.13;;;9.71;100.00
58243;BME280;50118;53.232;8.252;2022-10-31T06:07:59;101970.28;;;9.58;100.00
58243;BME280;50118;53.232;8.252;2022-10-31T06:10:26;101978.06;;;9.61;100.00
58243;BME280;50118;53.232;8.252;2022-10-31T06:12:51;101977.75;;;9.65;100.00
58243;BME280;50118;53.232;8.252;2022-10-31T06:15:20;101979.00;;;9.60;100.00
58243;BME280;50118;53.232;8.252;2022-10-31T06:17:46;101987.09;;;9.58;100.00
58243;BME280;50118;53.232;8.252;2022-10-31T06:20:11;101994.31;;;9.56;100.00
58243;BME280;50118;53.232;8.252;2022-10-31T06:22:36;101996.03;;;9.57;100.00
58243;BME280;50118;53.232;8.252;2022-10-31T06:25:02;102003.03;;;9.58;100.00
58243;BME280;50118;53.232;8.252;2022-10-31T06:27:28;102002.22;;;9.58;100.00
58243;BME280;50118;53.232;8.252;2022-10-31T06:29:53;102007.00;;;9.65;100.00
58243;BME280;50118;53.232;8.252;2022-10-31T06:32:19;101998.25;;;9.63;100.00
58243;BME280;50118;53.232;8.252;2022-10-31T06:34:44;102010.50;;;9.66;100.00
58243;BME280;50118;53.232;8.252;2022-10-31T06:37:13;102004.34;;;9.65;100.00
58243;BME280;50118;53.232;8.252;2022-10-31T06:39:38;102004.34;;;9.65;100.00
58243;BME280;50118;53.232;8.252;2022-10-31T06:42:07;102011.34;;;9.66;100.00
58243;BME280;50118;53.232;8.252;2022-10-31T06:44:33;102008.91;;;9.63;100.00
58243;BME280;50118;53.232;8.252;2022-10-31T06:46:58;101999.22;;;9.62;100.00
58243;BME280;50118;53.232;8.252;2022-10-31T06:49:24;102013.16;;;9.66;100.00
58243;BME280;50118;53.232;8.252;2022-10-31T06:51:50;102015.72;;;9.67;100.00
58243;BME280;50118;53.232;8.252;2022-10-31T06:54:16;102017.94;;;9.73;100.00
58243;BME280;50118;53.232;8.252;2022-10-31T06:56:42;102011.88;;;9.71;100.00
58243;BME280;50118;53.232;8.252;2022-10-31T06:59:32;102017.72;;;9.77;100.00
58243;BME280;50118;53.232;8.252;2022-10-31T07:02:09;102018.91;;;9.72;100.00
58243;BME280;50118;53.232;8.252;2022-10-31T07:04:38;102009.22;;;9.71;100.00
58243;BME280;50118;53.232;8.252;2022-10-31T07:07:19;102020.59;;;9.73;100.00
58243;BME280;50118;53.232;8.252;2022-10-31T07:09:49;102028.34;;;9.77;100.00
58243;BME280;50118;53.232;8.252;2022-10-31T07:12:23;102024.53;;;9.81;100.00
58243;BME280;50118;53.232;8.252;2022-10-31T07:14:59;102021.44;;;9.87;100.00
58243;BME280;50118;53.232;8.252;2022-10-31T07:17:25;102025.34;;;9.94;100.00
58243;BME280;50118;53.232;8.252;2022-10-31T07:19:51;102032.69;;;9.90;100.00
58243;BME280;50118;53.232;8.252;2022-10-31T07:22:16;102031.34;;;9.85;100.00
58243;BME280;50118;53.232;8.252;2022-10-31T07:24:45;102030.50;;;9.84;100.00
58243;BME280;50118;53.232;8.252;2022-10-31T07:27:10;102029.63;;;9.84;100.00
58243;BME280;50118;53.232;8.252;2022-10-31T07:29:36;102029.41;;;9.87;100.00
58243;BME280;50118;53.232;8.252;2022-10-31T07:32:04;102038.38;;;9.86;100.00
58243;BME280;50118;53.232;8.252;2022-10-31T07:34:30;102036.22;;;9.91;100.00
58243;BME280;50118;53.232;8.252;2022-10-31T07:36:56;102030.03;;;9.90;100.00
58243;BME280;50118;53.232;8.252;2022-10-31T07:39:33;102031.44;;;9.96;100.00
58243;BME280;50118;53.232;8.252;2022-10-31T07:41:59;102040.03;;;10.00;100.00
58243;BME280;50118;53.232;8.252;2022-10-31T07:44:24;102034.72;;;10.00;100.00
58243;BME280;50118;53.232;8.252;2022-10-31T07:46:53;102034.03;;;10.09;100.00
58243;BME280;50118;53.232;8.252;2022-10-31T07:49:18;102031.38;;;10.22;100.00
58243;BME280;50118;53.232;8.252;2022-10-31T07:51:46;102033.09;;;10.10;100.00
58243;BME280;50118;53.232;8.252;2022-10-31T07:54:15;102032.75;;;10.15;100.00
58243;BME280;50118;53.232;8.252;2022-10-31T07:56:41;102028.41;;;10.14;100.00
58243;BME280;50118;53.232;8.252;2022-10-31T08:02:46;102012.72;;;10.22;100.00
58243;BME280;50118;53.232;8.252;2022-10-31T08:06:17;102018.34;;;10.30;100.00
58243;BME280;50118;53.232;8.252;2022-10-31T08:09:06;102015.91;;;10.27;100.00
58243;BME280;50118;53.232;8.252;2022-10-31T08:12:06;102026.13;;;10.33;100.00
58243;BME280;50118;53.232;8.252;2022-10-31T08:24:46;102029.94;;;10.29;100.00
58243;BME280;50118;53.232;8.252;2022-10-31T08:38:16;102035.25;;;10.42;100.00
58243;BME280;50118;53.232;8.252;2022-10-31T08:41:03;102043.38;;;10.27;100.00
58243;BME280;50118;53.232;8.252;2022-10-31T08:43:50;102036.78;;;10.33;100.00
58243;BME280;50118;53.232;8.252;2022-10-31T09:07:19;102034.56;;;10.75;100.00
58243;BME280;50118;53.232;8.252;2022-10-31T09:13:45;102017.09;;;11.07;100.00
58243;BME280;50118;53.232;8.252;2022-10-31T09:20:00;102015.31;;;11.18;100.00
58243;BME280;50118;53.232;8.252;2022-10-31T09:29:41;102020.47;;;11.67;100.00
58243;BME280;50118;53.232;8.252;2022-10-31T09:32:47;102025.19;;;11.74;100.00
58243;BME280;50118;53.232;8.252;2022-10-31T09:36:31;102018.91;;;12.09;100.00
58243;BME280;50118;53.232;8.252;2022-10-31T09:39:13;102014.84;;;12.26;100.00
58243;BME280;50118;53.232;8.252;2022-10-31T09:44:45;102007.81;;;12.90;100.00
58243;BME280;50118;53.232;8.252;2022-10-31T09:51:12;102005.19;;;13.21;100.00
58243;BME280;50118;53.232;8.252;2022-10-31T09:58:26;101993.25;;;13.04;100.00
58243;BME280;50118;53.232;8.252;2022-10-31T11:45:45;101956.25;;;16.02;100.00
58243;BME280;50118;53.232;8.252;2022-10-31T15:16:08;101658.44;;;13.59;100.00
58243;BME280;50118;53.232;8.252;2022-10-31T15:37:00;101644.19;;;13.10;100.00
58243;BME280;50118;53.232;8.252;2022-10-31T15:54:04;101634.00;;;12.84;100.00
58243;BME280;50118;53.232;8.252;2022-10-31T16:04:34;101626.50;;;12.68;100.00
58243;BME280;50118;53.232;8.252;2022-10-31T16:10:51;101626.94;;;12.63;100.00
58243;BME280;50118;53.232;8.252;2022-10-31T16:13:21;101609.19;;;12.62;100.00
58243;BME280;50118;53.232;8.252;2022-10-31T16:23:16;101596.22;;;12.48;100.00
58243;BME280;50118;53.232;8.252;2022-10-31T16:26:23;101594.94;;;12.42;100.00
58243;BME280;50118;53.232;8.252;2022-10-31T16:29:02;101602.38;;;12.39;100.00
58243;BME280;50118;53.232;8.252;2022-10-31T16:38:11;101606.41;;;12.23;100.00
58243;BME280;50118;53.232;8.252;2022-10-31T16:40:50;101604.56;;;12.24;100.00
58243;BME280;50118;53.232;8.252;2022-10-31T16:43:25;101591.09;;;12.25;100.00
58243;BME280;50118;53.232;8.252;2022-10-31T16:46:39;101583.19;;;12.24;100.00
58243;BME280;50118;53.232;8.252;2022-10-31T16:49:51;101607.66;;;12.19;100.00
58243;BME280;50118;53.232;8.252;2022-10-31T16:59:31;101591.91;;;12.16;100.00
58243;BME280;50118;53.232;8.252;2022-10-31T17:05:35;101580.97;;;12.19;100.00
58243;BME280;50118;53.232;8.252;2022-10-31T17:08:43;101574.88;;;12.17;100.00
58243;BME280;50118;53.232;8.252;2022-10-31T17:38:02;101521.34;;;12.09;100.00
58243;BME280;50118;53.232;8.252;2022-10-31T17:40:46;101525.53;;;12.11;100.00
58243;BME280;50118;53.232;8.252;2022-10-31T17:43:49;101543.28;;;12.22;100.00
58243;BME280;50118;53.232;8.252;2022-10-31T17:46:47;101554.25;;;12.29;100.00
58243;BME280;50118;53.232;8.252;2022-10-31T17:49:42;101551.19;;;12.33;100.00
58243;BME280;50118;53.232;8.252;2022-10-31T18:03:53;101473.69;;;12.14;100.00
58243;BME280;50118;53.232;8.252;2022-10-31T18:07:07;101475.78;;;12.20;100.00
58243;BME280;50118;53.232;8.252;2022-10-31T18:17:38;101487.63;;;12.37;100.00
58243;BME280;50118;53.232;8.252;2022-10-31T18:20:47;101477.78;;;12.28;100.00
58243;BME280;50118;53.232;8.252;2022-10-31T18:24:10;101464.56;;;12.26;100.00
58243;BME280;50118;53.232;8.252;2022-10-31T18:38:18;101463.03;;;12.43;100.00
58243;BME280;50118;53.232;8.252;2022-10-31T18:58:50;101424.63;;;12.54;100.00
58243;BME280;50118;53.232;8.252;2022-10-31T19:01:27;101419.00;;;12.47;100.00
58243;BME280;50118;53.232;8.252;2022-10-31T19:04:40;101423.94;;;12.52;100.00
58243;BME280;50118;53.232;8.252;2022-10-31T19:14:27;101393.44;;;12.45;100.00
58243;BME280;50118;53.232;8.252;2022-10-31T19:17:04;101373.91;;;12.35;100.00
58243;BME280;50118;53.232;8.252;2022-10-31T19:20:27;101376.00;;;12.31;100.00
58243;BME280;50118;53.232;8.252;2022-10-31T19:26:55;101363.19;;;12.44;100.00
58243;BME280;50118;53.232;8.252;2022-10-31T19:40:20;101340.00;;;12.45;100.00
58243;BME280;50118;53.232;8.252;2022-10-31T19:46:43;101325.69;;;12.36;100.00
58243;BME280;50118;53.232;8.252;2022-10-31T19:49:18;101324.81;;;12.36;100.00
58243;BME280;50118;53.232;8.252;2022-10-31T19:52:16;101320.47;;;12.35;100.00
58243;BME280;50118;53.232;8.252;2022-10-31T20:01:47;101284.88;;;12.44;100.00
58243;BME280;50118;53.232;8.252;2022-10-31T20:07:38;101294.69;;;12.53;100.00
58243;BME280;50118;53.232;8.252;2022-10-31T20:20:11;101291.03;;;12.54;100.00
58243;BME280;50118;53.232;8.252;2022-10-31T20:44:24;101250.28;;;12.42;100.00
58243;BME280;50118;53.232;8.252;2022-10-31T20:47:31;101241.00;;;12.46;100.00
58243;BME280;50118;53.232;8.252;2022-10-31T20:54:21;101259.72;;;12.37;100.00
58243;BME280;50118;53.232;8.252;2022-10-31T20:57:26;101250.81;;;12.46;100.00
58243;BME280;50118;53.232;8.252;2022-10-31T21:04:38;101245.59;;;12.54;100.00
58243;BME280;50118;53.232;8.252;2022-10-31T21:07:46;101232.94;;;12.56;100.00
58243;BME280;50118;53.232;8.252;2022-10-31T21:14:15;101222.88;;;12.30;100.00
58243;BME280;50118;53.232;8.252;2022-10-31T21:21:30;101233.13;;;12.45;100.00
58243;BME280;50118;53.232;8.252;2022-10-31T21:23:42;101233.41;;;12.42;100.00
58243;BME280;50118;53.232;8.252;2022-10-31T21:26:42;101228.63;;;12.36;100.00
58243;BME280;50118;53.232;8.252;2022-10-31T21:32:56;101226.38;;;12.41;100.00
58243;BME280;50118;53.232;8.252;2022-10-31T21:42:44;101217.94;;;12.36;100.00
58243;BME280;50118;53.232;8.252;2022-10-31T21:56:28;101200.84;;;12.28;100.00
58243;BME280;50118;53.232;8.252;2022-10-31T21:59:44;101197.72;;;12.33;100.00
58243;BME280;50118;53.232;8.252;2022-10-31T22:02:38;101200.81;;;12.38;100.00
58243;BME280;50118;53.232;8.252;2022-10-31T22:06:02;101191.84;;;12.29;100.00
58243;BME280;50118;53.232;8.252;2022-10-31T22:09:14;101187.47;;;12.28;100.00
58243;BME280;50118;53.232;8.252;2022-10-31T22:22:49;101168.94;;;12.17;100.00
58243;BME280;50118;53.232;8.252;2022-10-31T22:36:52;101152.16;;;11.97;100.00
58243;BME280;50118;53.232;8.252;2022-10-31T22:43:27;101144.41;;;11.84;100.00
58243;BME280;50118;53.232;8.252;2022-10-31T22:49:51;101137.22;;;11.85;100.00
58243;BME280;50118;53.232;8.252;2022-10-31T22:52:25;101124.03;;;11.83;100.00
58243;BME280;50118;53.232;8.252;2022-10-31T23:01:47;101113.41;;;11.73;100.00
58243;BME280;50118;53.232;8.252;2022-10-31T23:08:05;101110.69;;;11.83;100.00
58243;BME280;50118;53.232;8.252;2022-10-31T23:47:14;101070.03;;;11.42;100.00
